sensor_id;sensor_type;location;lat;lon;timestamp;pressure;altitude;pressure_sealevel;temperature;humidity
10071;BME280;5074;53.720;10.014;2023-06-22T00:01:26;101581.50;;;16.80;100.00
10071;BME280;5074;53.720;10.014;2023-06-22T00:03:54;101583.31;;;16.79;100.00
10071;BME280;5074;53.720;10.014;2023-06-22T00:06:22;101583.47;;;16.76;100.00
10071;BME280;5074;53.720;10.014;2023-06-22T00:08:50;101577.69;;;16.65;100.00
10071;BME280;5074;53.720;10.014;2023-06-22T00:11:19;101572.16;;;16.49;100.00
10071;BME280;5074;53.720;10.014;2023-06-22T00:13:47;101573.31;;;16.43;100.00
10071;BME280;5074;53.720;10.014;2023-06-22T00:16:17;101577.47;;;16.50;100.00
10071;BME280;5074;53.720;10.014;2023-06-22T00:18:45;101569.81;;;16.60;100.00
10071;BME280;5074;53.720;10.014;2023-06-22T00:21:14;101569.97;;;16.76;100.00
10071;BME280;5074;53.720;10.014;2023-06-22T00:23:42;101578.13;;;16.75;100.00
10071;BME280;5074;53.720;10.014;2023-06-22T00:26:10;101581.56;;;16.78;100.00
10071;BME280;5074;53.720;10.014;2023-06-22T00:28:39;101581.69;;;16.75;100.00
10071;BME280;5074;53.720;10.014;2023-06-22T00:31:07;101587.41;;;16.69;100.00
10071;BME280;5074;53.720;10.014;2023-06-22T00:33:36;101585.72;;;16.66;100.00
10071;BME280;5074;53.720;10.014;2023-06-22T00:36:05;101596.88;;;16.59;100.00
10071;BME280;5074;53.720;10.014;2023-06-22T00:38:34;101595.56;;;16.48;100.00
10071;BME280;5074;53.720;10.014;2023-06-22T00:41:07;101590.97;;;16.50;100.00
10071;BME280;5074;53.720;10.014;2023-06-22T00:43:35;101588.66;;;16.62;100.00
10071;BME280;5074;53.720;10.014;2023-06-22T00:46:03;101592.56;;;16.74;100.00
10071;BME280;5074;53.720;10.014;2023-06-22T00:48:31;101586.91;;;16.80;100.00
10071;BME280;5074;53.720;10.014;2023-06-22T00:51:01;101586.91;;;16.80;100.00
10071;BME280;5074;53.720;10.014;2023-06-22T00:53:30;101592.38;;;16.78;100.00
10071;BME280;5074;53.720;10.014;2023-06-22T00:56:02;101591.72;;;16.73;100.00
10071;BME280;5074;53.720;10.014;2023-06-22T00:58:31;101606.53;;;16.64;100.00
10071;BME280;5074;53.720;10.014;2023-06-22T01:00:59;101603.91;;;16.63;100.00
10071;BME280;5074;53.720;10.014;2023-06-22T01:03:28;101602.22;;;16.60;100.00
10071;BME280;5074;53.720;10.014;2023-06-22T01:06:05;101608.34;;;16.64;100.00
10071;BME280;5074;53.720;10.014;2023-06-22T01:08:42;101609.00;;;16.69;100.00
10071;BME280;5074;53.720;10.014;2023-06-22T01:11:17;101608.84;;;16.72;100.00
10071;BME280;5074;53.720;10.014;2023-06-22T01:13:52;101609.06;;;16.67;100.00
10071;BME280;5074;53.720;10.014;2023-06-22T01:16:27;101604.69;;;16.65;100.00
10071;BME280;5074;53.720;10.014;2023-06-22T01:18:57;101595.44;;;16.52;100.00
10071;BME280;5074;53.720;10.014;2023-06-22T01:21:31;101592.81;;;16.50;100.00
10071;BME280;5074;53.720;10.014;2023-06-22T01:24:11;101591.72;;;16.54;100.00
10071;BME280;5074;53.720;10.014;2023-06-22T01:26:48;101597.44;;;16.27;100.00
10071;BME280;5074;53.720;10.014;2023-06-22T01:29:24;101592.78;;;16.31;100.00
10071;BME280;5074;53.720;10.014;2023-06-22T01:31:54;101598.25;;;16.29;100.00
10071;BME280;5074;53.720;10.014;2023-06-22T01:34:24;101591.97;;;16.29;100.00
10071;BME280;5074;53.720;10.014;2023-06-22T01:36:52;101590.59;;;16.39;100.00
10071;BME280;5074;53.720;10.014;2023-06-22T01:39:21;101592.34;;;16.40;100.00
10071;BME280;5074;53.720;10.014;2023-06-22T01:41:50;101587.31;;;16.32;100.00
10071;BME280;5074;53.720;10.014;2023-06-22T01:44:20;101570.63;;;16.24;100.00
10071;BME280;5074;53.720;10.014;2023-06-22T01:46:50;101584.34;;;16.39;100.00
10071;BME280;5074;53.720;10.014;2023-06-22T01:49:20;101583.25;;;16.43;100.00
10071;BME280;5074;53.720;10.014;2023-06-22T01:51:48;101579.38;;;16.29;100.00
10071;BME280;5074;53.720;10.014;2023-06-22T01:54:17;101566.16;;;16.23;100.00
10071;BME280;5074;53.720;10.014;2023-06-22T01:56:45;101576.28;;;16.18;100.00
10071;BME280;5074;53.720;10.014;2023-06-22T01:59:17;101584.31;;;16.20;100.00
10071;BME280;5074;53.720;10.014;2023-06-22T02:01:54;101583.16;;;16.25;100.00
10071;BME280;5074;53.720;10.014;2023-06-22T02:04:28;101581.53;;;16.21;100.00
10071;BME280;5074;53.720;10.014;2023-06-22T02:07:05;101588.19;;;16.33;100.00
10071;BME280;5074;53.720;10.014;2023-06-22T02:09:37;101583.63;;;16.35;100.00
10071;BME280;5074;53.720;10.014;2023-06-22T02:12:07;101593.59;;;16.33;100.00
10071;BME280;5074;53.720;10.014;2023-06-22T02:14:37;101601.69;;;16.33;100.00
10071;BME280;5074;53.720;10.014;2023-06-22T02:17:08;101595.19;;;16.37;100.00
10071;BME280;5074;53.720;10.014;2023-06-22T02:19:37;101577.78;;;16.44;100.00
10071;BME280;5074;53.720;10.014;2023-06-22T02:22:06;101586.09;;;16.40;100.00
10071;BME280;5074;53.720;10.014;2023-06-22T02:24:34;101594.91;;;16.43;100.00
10071;BME280;5074;53.720;10.014;2023-06-22T02:27:02;101580.78;;;16.38;100.00
10071;BME280;5074;53.720;10.014;2023-06-22T02:29:31;101590.59;;;16.39;100.00
10071;BME280;5074;53.720;10.014;2023-06-22T02:31:59;101582.50;;;16.39;100.00
10071;BME280;5074;53.720;10.014;2023-06-22T02:34:29;101586.81;;;16.43;100.00
10071;BME280;5074;53.720;10.014;2023-06-22T02:36:57;101586.09;;;16.40;100.00
10071;BME280;5074;53.720;10.014;2023-06-22T02:39:27;101578.34;;;16.32;100.00
10071;BME280;5074;53.720;10.014;2023-06-22T02:41:55;101579.63;;;16.23;100.00
10071;BME280;5074;53.720;10.014;2023-06-22T02:44:23;101574.69;;;16.14;100.00
10071;BME280;5074;53.720;10.014;2023-06-22T02:46:51;101567.06;;;16.03;100.00
10071;BME280;5074;53.720;10.014;2023-06-22T02:49:20;101579.84;;;16.19;100.00
10071;BME280;5074;53.720;10.014;2023-06-22T02:51:50;101582.00;;;16.31;100.00
10071;BME280;5074;53.720;10.014;2023-06-22T02:54:18;101585.94;;;16.43;100.00
10071;BME280;5074;53.720;10.014;2023-06-22T02:56:47;101575.59;;;16.34;100.00
10071;BME280;5074;53.720;10.014;2023-06-22T02:59:17;101583.88;;;16.29;100.00
10071;BME280;5074;53.720;10.014;2023-06-22T03:01:50;101582.41;;;16.22;100.00
10071;BME280;5074;53.720;10.014;2023-06-22T03:04:18;101579.75;;;16.01;100.00
10071;BME280;5074;53.720;10.014;2023-06-22T03:06:46;101578.00;;;16.00;100.00
10071;BME280;5074;53.720;10.014;2023-06-22T03:09:19;101573.88;;;16.12;100.00
10071;BME280;5074;53.720;10.014;2023-06-22T03:11:48;101583.94;;;16.08;100.00
10071;BME280;5074;53.720;10.014;2023-06-22T03:14:16;101576.13;;;16.02;100.00
10071;BME280;5074;53.720;10.014;2023-06-22T03:16:44;101583.13;;;16.06;100.00
10071;BME280;5074;53.720;10.014;2023-06-22T03:19:12;101580.50;;;16.05;100.00
10071;BME280;5074;53.720;10.014;2023-06-22T03:21:40;101586.16;;;15.98;100.00
10071;BME280;5074;53.720;10.014;2023-06-22T03:24:08;101583.13;;;16.06;100.00
10071;BME280;5074;53.720;10.014;2023-06-22T03:26:37;101582.25;;;16.06;100.00
10071;BME280;5074;53.720;10.014;2023-06-22T03:29:05;101588.47;;;16.08;100.00
10071;BME280;5074;53.720;10.014;2023-06-22T03:31:34;101590.19;;;16.09;100.00
10071;BME280;5074;53.720;10.014;2023-06-22T03:34:02;101594.84;;;16.05;100.00
10071;BME280;5074;53.720;10.014;2023-06-22T03:36:30;101596.81;;;16.02;100.00
10071;BME280;5074;53.720;10.014;2023-06-22T03:38:58;101597.94;;;15.96;100.00
10071;BME280;5074;53.720;10.014;2023-06-22T03:41:26;101606.25;;;15.91;100.00
10071;BME280;5074;53.720;10.014;2023-06-22T03:43:56;101594.25;;;15.98;100.00
10071;BME280;5074;53.720;10.014;2023-06-22T03:46:24;101604.09;;;16.00;100.00
10071;BME280;5074;53.720;10.014;2023-06-22T03:48:52;101606.03;;;15.96;100.00
10071;BME280;5074;53.720;10.014;2023-06-22T03:51:21;101606.94;;;15.96;100.00
10071;BME280;5074;53.720;10.014;2023-06-22T03:53:49;101607.88;;;15.95;100.00
10071;BME280;5074;53.720;10.014;2023-06-22T03:56:17;101615.09;;;15.95;100.00
10071;BME280;5074;53.720;10.014;2023-06-22T03:58:47;101619.06;;;16.07;100.00
10071;BME280;5074;53.720;10.014;2023-06-22T04:01:17;101618.13;;;16.08;100.00
10071;BME280;5074;53.720;10.014;2023-06-22T04:03:45;101615.94;;;16.16;100.00
10071;BME280;5074;53.720;10.014;2023-06-22T04:06:15;101608.81;;;16.15;100.00
10071;BME280;5074;53.720;10.014;2023-06-22T04:08:45;101614.13;;;16.17;100.00
10071;BME280;5074;53.720;10.014;2023-06-22T04:11:18;101620.84;;;16.27;100.00
10071;BME280;5074;53.720;10.014;2023-06-22T04:13:46;101618.69;;;16.35;100.00
10071;BME280;5074;53.720;10.014;2023-06-22T04:16:23;101633.44;;;16.47;100.00
10071;BME280;5074;53.720;10.014;2023-06-22T04:19:06;101625.19;;;16.50;100.00
10071;BME280;5074;53.720;10.014;2023-06-22T04:21:47;101628.81;;;16.68;100.00
10071;BME280;5074;53.720;10.014;2023-06-22T04:24:16;101630.22;;;16.77;100.00
10071;BME280;5074;53.720;10.014;2023-06-22T04:26:44;101630.72;;;16.85;100.00
10071;BME280;5074;53.720;10.014;2023-06-22T04:29:13;101634.91;;;16.92;100.00
10071;BME280;5074;53.720;10.014;2023-06-22T04:31:43;101629.75;;;16.88;100.00
10071;BME280;5074;53.720;10.014;2023-06-22T04:34:11;101634.44;;;16.82;100.00
10071;BME280;5074;53.720;10.014;2023-06-22T04:36:41;101637.03;;;16.86;100.00
10071;BME280;5074;53.720;10.014;2023-06-22T04:39:10;101634.53;;;16.81;100.00
10071;BME280;5074;53.720;10.014;2023-06-22T04:41:40;101637.78;;;16.89;100.00
10071;BME280;5074;53.720;10.014;2023-06-22T04:44:11;101639.66;;;17.06;100.00
10071;BME280;5074;53.720;10.014;2023-06-22T04:46:39;101633.38;;;17.06;100.00
10071;BME280;5074;53.720;10.014;2023-06-22T04:49:09;101635.66;;;16.96;100.00
10071;BME280;5074;53.720;10.014;2023-06-22T04:51:40;101632.00;;;16.97;100.00
10071;BME280;5074;53.720;10.014;2023-06-22T04:54:09;101639.28;;;17.14;100.00
10071;BME280;5074;53.720;10.014;2023-06-22T04:56:37;101637.38;;;17.16;100.00
10071;BME280;5074;53.720;10.014;2023-06-22T04:59:07;101636.81;;;17.09;100.00
10071;BME280;5074;53.720;10.014;2023-06-22T05:01:39;101635.81;;;17.29;100.00
10071;BME280;5074;53.720;10.014;2023-06-22T05:04:12;101636.53;;;17.33;100.00
10071;BME280;5074;53.720;10.014;2023-06-22T05:06:41;101641.06;;;17.32;100.00
10071;BME280;5074;53.720;10.014;2023-06-22T05:09:09;101640.13;;;17.33;100.00
10071;BME280;5074;53.720;10.014;2023-06-22T05:11:38;101646.16;;;17.39;100.00
10071;BME280;5074;53.720;10.014;2023-06-22T05:14:07;101639.88;;;17.38;100.00
10071;BME280;5074;53.720;10.014;2023-06-22T05:16:35;101646.31;;;17.35;100.00
10071;BME280;5074;53.720;10.014;2023-06-22T05:19:04;101642.28;;;17.44;100.00
10071;BME280;5074;53.720;10.014;2023-06-22T05:21:34;101647.00;;;17.58;100.00
10071;BME280;5074;53.720;10.014;2023-06-22T05:24:02;101642.88;;;17.68;100.00
10071;BME280;5074;53.720;10.014;2023-06-22T05:26:31;101639.59;;;17.79;100.00
10071;BME280;5074;53.720;10.014;2023-06-22T05:29:01;101644.75;;;17.66;100.00
10071;BME280;5074;53.720;10.014;2023-06-22T05:31:30;101647.88;;;17.59;100.00
10071;BME280;5074;53.720;10.014;2023-06-22T05:33:58;101650.81;;;17.71;100.00
10071;BME280;5074;53.720;10.014;2023-06-22T05:36:26;101643.09;;;17.81;100.00
10071;BME280;5074;53.720;10.014;2023-06-22T05:38:56;101648.59;;;17.80;100.00
10071;BME280;5074;53.720;10.014;2023-06-22T05:41:25;101652.16;;;17.80;100.00
10071;BME280;5074;53.720;10.014;2023-06-22T05:43:53;101654.53;;;17.86;100.00
10071;BME280;5074;53.720;10.014;2023-06-22T05:46:21;101650.75;;;17.91;100.00
10071;BME280;5074;53.720;10.014;2023-06-22T05:48:49;101651.56;;;17.93;100.00
10071;BME280;5074;53.720;10.014;2023-06-22T05:51:17;101654.03;;;17.97;100.00
10071;BME280;5074;53.720;10.014;2023-06-22T05:53:45;101655.84;;;18.14;100.00
10071;BME280;5074;53.720;10.014;2023-06-22T05:56:17;101647.66;;;18.16;100.00
10071;BME280;5074;53.720;10.014;2023-06-22T05:58:47;101649.50;;;17.98;100.00
10071;BME280;5074;53.720;10.014;2023-06-22T06:01:15;101649.06;;;18.23;100.00
10071;BME280;5074;53.720;10.014;2023-06-22T06:03:43;101645.94;;;18.31;100.00
10071;BME280;5074;53.720;10.014;2023-06-22T06:06:11;101639.72;;;18.46;100.00
10071;BME280;5074;53.720;10.014;2023-06-22T06:08:40;101637.34;;;18.56;100.00
10071;BME280;5074;53.720;10.014;2023-06-22T06:11:08;101638.06;;;18.60;100.00
10071;BME280;5074;53.720;10.014;2023-06-22T06:13:38;101626.78;;;18.51;100.00
10071;BME280;5074;53.720;10.014;2023-06-22T06:16:06;101636.41;;;18.57;100.00
10071;BME280;5074;53.720;10.014;2023-06-22T06:18:34;101638.16;;;18.58;100.00
10071;BME280;5074;53.720;10.014;2023-06-22T06:21:04;101636.03;;;18.47;100.00
10071;BME280;5074;53.720;10.014;2023-06-22T06:23:32;101637.97;;;18.45;100.00
10071;BME280;5074;53.720;10.014;2023-06-22T06:26:00;101643.56;;;18.58;100.00
10071;BME280;5074;53.720;10.014;2023-06-22T06:28:28;101638.66;;;18.49;100.00
10071;BME280;5074;53.720;10.014;2023-06-22T06:30:58;101637.97;;;18.45;100.00
10071;BME280;5074;53.720;10.014;2023-06-22T06:33:26;101634.13;;;18.49;100.00
10071;BME280;5074;53.720;10.014;2023-06-22T06:35:54;101628.00;;;18.46;100.00
10071;BME280;5074;53.720;10.014;2023-06-22T06:38:22;101628.63;;;18.51;100.00
10071;BME280;5074;53.720;10.014;2023-06-22T06:40:51;101641.59;;;18.44;100.00
10071;BME280;5074;53.720;10.014;2023-06-22T06:43:19;101637.97;;;18.45;100.00
10071;BME280;5074;53.720;10.014;2023-06-22T06:45:47;101634.31;;;18.46;100.00
10071;BME280;5074;53.720;10.014;2023-06-22T06:48:19;101639.63;;;18.48;100.00
10071;BME280;5074;53.720;10.014;2023-06-22T06:50:47;101635.81;;;18.52;100.00
10071;BME280;5074;53.720;10.014;2023-06-22T06:53:16;101627.88;;;18.65;100.00
10071;BME280;5074;53.720;10.014;2023-06-22T06:55:45;101627.16;;;18.77;100.00
10071;BME280;5074;53.720;10.014;2023-06-22T06:58:13;101630.00;;;18.91;100.00
10071;BME280;5074;53.720;10.014;2023-06-22T07:00:42;101627.38;;;19.06;100.00
10071;BME280;5074;53.720;10.014;2023-06-22T07:03:10;101627.81;;;19.14;100.00
10071;BME280;5074;53.720;10.014;2023-06-22T07:05:40;101632.88;;;19.20;100.00
10071;BME280;5074;53.720;10.014;2023-06-22T07:08:08;101626.03;;;19.29;100.00
10071;BME280;5074;53.720;10.014;2023-06-22T07:10:36;101622.59;;;19.57;100.00
10071;BME280;5074;53.720;10.014;2023-06-22T07:13:04;101626.97;;;19.74;100.00
10071;BME280;5074;53.720;10.014;2023-06-22T07:15:32;101628.78;;;19.90;100.00
10071;BME280;5074;53.720;10.014;2023-06-22T07:18:00;101625.53;;;19.99;100.00
10071;BME280;5074;53.720;10.014;2023-06-22T07:20:28;101626.22;;;20.17;100.00
10071;BME280;5074;53.720;10.014;2023-06-22T07:22:58;101620.72;;;20.33;100.00
10071;BME280;5074;53.720;10.014;2023-06-22T07:25:26;101626.34;;;20.30;100.00
10071;BME280;5074;53.720;10.014;2023-06-22T07:27:59;101637.09;;;20.17;100.00
10071;BME280;5074;53.720;10.014;2023-06-22T07:30:28;101629.81;;;20.32;100.00
10071;BME280;5074;53.720;10.014;2023-06-22T07:32:58;101627.69;;;20.37;100.00
10071;BME280;5074;53.720;10.014;2023-06-22T07:35:30;101621.66;;;20.46;100.00
10071;BME280;5074;53.720;10.014;2023-06-22T07:38:00;101616.84;;;20.52;100.00
10071;BME280;5074;53.720;10.014;2023-06-22T07:40:32;101619.34;;;20.55;100.00
10071;BME280;5074;53.720;10.014;2023-06-22T07:43:00;101614.50;;;20.60;100.00
10071;BME280;5074;53.720;10.014;2023-06-22T07:45:28;101621.66;;;20.61;100.00
10071;BME280;5074;53.720;10.014;2023-06-22T07:47:57;101617.78;;;20.79;100.00
10071;BME280;5074;53.720;10.014;2023-06-22T07:50:25;101621.97;;;20.85;100.00
10071;BME280;5074;53.720;10.014;2023-06-22T07:52:54;101622.34;;;20.93;100.00
10071;BME280;5074;53.720;10.014;2023-06-22T07:55:23;101615.78;;;21.10;100.00
10071;BME280;5074;53.720;10.014;2023-06-22T07:57:52;101619.75;;;21.19;100.00
10071;BME280;5074;53.720;10.014;2023-06-22T08:00:20;101622.78;;;21.27;100.00
10071;BME280;5074;53.720;10.014;2023-06-22T08:02:48;101617.72;;;21.36;100.00
10071;BME280;5074;53.720;10.014;2023-06-22T08:05:17;101622.63;;;21.43;100.00
10071;BME280;5074;53.720;10.014;2023-06-22T08:07:48;101614.97;;;21.23;100.00
10071;BME280;5074;53.720;10.014;2023-06-22T08:10:18;101600.50;;;21.22;100.00
10071;BME280;5074;53.720;10.014;2023-06-22T08:12:48;101619.25;;;21.40;100.00
10071;BME280;5074;53.720;10.014;2023-06-22T08:15:17;101625.63;;;21.53;100.00
10071;BME280;5074;53.720;10.014;2023-06-22T08:17:45;101619.47;;;21.64;100.00
10071;BME280;5074;53.720;10.014;2023-06-22T08:20:13;101625.34;;;21.71;100.00
10071;BME280;5074;53.720;10.014;2023-06-22T08:22:42;101606.53;;;21.80;100.00
10071;BME280;5074;53.720;10.014;2023-06-22T08:25:10;101620.91;;;21.95;100.00
10071;BME280;5074;53.720;10.014;2023-06-22T08:27:40;101621.34;;;21.76;100.00
10071;BME280;5074;53.720;10.014;2023-06-22T08:30:10;101616.03;;;21.88;100.00
10071;BME280;5074;53.720;10.014;2023-06-22T08:32:39;101591.66;;;21.86;100.00
10071;BME280;5074;53.720;10.014;2023-06-22T08:35:08;101612.25;;;22.03;100.00
10071;BME280;5074;53.720;10.014;2023-06-22T08:37:36;101603.19;;;22.02;100.00
10071;BME280;5074;53.720;10.014;2023-06-22T08:40:07;101606.25;;;22.11;100.00
10071;BME280;5074;53.720;10.014;2023-06-22T08:42:39;101600.56;;;22.14;100.00
10071;BME280;5074;53.720;10.014;2023-06-22T08:45:10;101610.16;;;22.07;100.00
10071;BME280;5074;53.720;10.014;2023-06-22T08:47:39;101612.13;;;21.92;100.00
10071;BME280;5074;53.720;10.014;2023-06-22T08:50:09;101606.78;;;21.90;100.00
10071;BME280;5074;53.720;10.014;2023-06-22T08:52:38;101609.50;;;21.90;100.00
10071;BME280;5074;53.720;10.014;2023-06-22T08:55:09;101591.66;;;21.99;100.00
10071;BME280;5074;53.720;10.014;2023-06-22T08:57:37;101587.75;;;22.16;100.00
10071;BME280;5074;53.720;10.014;2023-06-22T09:00:07;101593.19;;;22.16;100.00
10071;BME280;5074;53.720;10.014;2023-06-22T09:02:48;101584.91;;;22.30;100.00
10071;BME280;5074;53.720;10.014;2023-06-22T09:05:17;101585.75;;;22.31;100.00
10071;BME280;5074;53.720;10.014;2023-06-22T09:07:45;101587.31;;;22.35;100.00
10071;BME280;5074;53.720;10.014;2023-06-22T09:10:13;101582.47;;;22.51;100.00
10071;BME280;5074;53.720;10.014;2023-06-22T09:12:44;101579.25;;;22.33;100.00
10071;BME280;5074;53.720;10.014;2023-06-22T09:15:12;101577.94;;;22.39;100.00
10071;BME280;5074;53.720;10.014;2023-06-22T09:17:44;101573.44;;;22.51;100.00
10071;BME280;5074;53.720;10.014;2023-06-22T09:20:15;101565.38;;;22.62;100.00
10071;BME280;5074;53.720;10.014;2023-06-22T09:22:43;101570.59;;;22.65;100.00
10071;BME280;5074;53.720;10.014;2023-06-22T09:25:11;101573.63;;;22.74;100.00
10071;BME280;5074;53.720;10.014;2023-06-22T09:27:40;101561.84;;;22.97;100.00
10071;BME280;5074;53.720;10.014;2023-06-22T09:30:08;101565.78;;;22.93;100.00
10071;BME280;5074;53.720;10.014;2023-06-22T09:32:37;101559.72;;;23.14;100.00
10071;BME280;5074;53.720;10.014;2023-06-22T09:35:06;101551.78;;;23.35;100.00
10071;BME280;5074;53.720;10.014;2023-06-22T09:37:36;101550.25;;;23.66;100.00
10071;BME280;5074;53.720;10.014;2023-06-22T09:40:06;101543.56;;;23.70;100.00
10071;BME280;5074;53.720;10.014;2023-06-22T09:42:38;101549.78;;;23.72;100.00
10071;BME280;5074;53.720;10.014;2023-06-22T09:45:07;101550.09;;;23.92;100.00
10071;BME280;5074;53.720;10.014;2023-06-22T09:47:35;101545.97;;;23.98;100.00
10071;BME280;5074;53.720;10.014;2023-06-22T09:50:04;101539.41;;;24.00;100.00
10071;BME280;5074;53.720;10.014;2023-06-22T09:52:33;101539.56;;;24.21;100.00
10071;BME280;5074;53.720;10.014;2023-06-22T09:55:15;101544.88;;;24.12;100.00
10071;BME280;5074;53.720;10.014;2023-06-22T09:57:44;101544.41;;;24.06;100.00
10071;BME280;5074;53.720;10.014;2023-06-22T10:00:13;101540.91;;;24.04;100.00
10071;BME280;5074;53.720;10.014;2023-06-22T10:02:42;101539.16;;;24.03;100.00
10071;BME280;5074;53.720;10.014;2023-06-22T10:05:11;101543.28;;;24.20;100.00
10071;BME280;5074;53.720;10.014;2023-06-22T10:07:40;101545.75;;;24.23;100.00
10071;BME280;5074;53.720;10.014;2023-06-22T10:10:11;101537.16;;;24.39;100.00
10071;BME280;5074;53.720;10.014;2023-06-22T10:12:46;101532.81;;;24.48;100.00
10071;BME280;5074;53.720;10.014;2023-06-22T10:15:15;101539.88;;;24.73;100.00
10071;BME280;5074;53.720;10.014;2023-06-22T10:17:44;101532.16;;;24.78;100.00
10071;BME280;5074;53.720;10.014;2023-06-22T10:20:12;101530.63;;;24.97;100.00
10071;BME280;5074;53.720;10.014;2023-06-22T10:22:41;101532.53;;;24.74;100.00
10071;BME280;5074;53.720;10.014;2023-06-22T10:25:11;101533.91;;;24.79;100.00
10071;BME280;5074;53.720;10.014;2023-06-22T10:27:40;101530.56;;;25.08;100.00
10071;BME280;5074;53.720;10.014;2023-06-22T10:30:11;101533.38;;;24.86;100.00
10071;BME280;5074;53.720;10.014;2023-06-22T10:32:40;101534.38;;;24.96;100.00
10071;BME280;5074;53.720;10.014;2023-06-22T10:35:09;101519.47;;;24.89;100.00
10071;BME280;5074;53.720;10.014;2023-06-22T10:37:41;101518.94;;;24.95;100.00
10071;BME280;5074;53.720;10.014;2023-06-22T10:40:11;101515.84;;;24.88;100.00
10071;BME280;5074;53.720;10.014;2023-06-22T10:42:39;101520.69;;;24.96;100.00
10071;BME280;5074;53.720;10.014;2023-06-22T10:45:10;101517.09;;;24.84;100.00
10071;BME280;5074;53.720;10.014;2023-06-22T10:47:39;101505.84;;;24.77;100.00
10071;BME280;5074;53.720;10.014;2023-06-22T10:50:11;101504.03;;;24.99;100.00
10071;BME280;5074;53.720;10.014;2023-06-22T10:52:42;101505.91;;;25.20;100.00
10071;BME280;5074;53.720;10.014;2023-06-22T10:55:10;101499.78;;;25.06;100.00
10071;BME280;5074;53.720;10.014;2023-06-22T10:57:39;101502.38;;;25.29;100.00
10071;BME280;5074;53.720;10.014;2023-06-22T11:00:13;101455.34;;;25.14;100.00
10071;BME280;5074;53.720;10.014;2023-06-22T11:02:42;101496.28;;;25.58;100.00
10071;BME280;5074;53.720;10.014;2023-06-22T11:05:11;101497.00;;;25.18;100.00
10071;BME280;5074;53.720;10.014;2023-06-22T11:07:41;101496.66;;;25.32;100.00
10071;BME280;5074;53.720;10.014;2023-06-22T11:10:14;101495.97;;;25.19;100.00
10071;BME280;5074;53.720;10.014;2023-06-22T11:12:43;101488.38;;;25.22;100.00
10071;BME280;5074;53.720;10.014;2023-06-22T11:15:12;101477.88;;;25.39;100.00
10071;BME280;5074;53.720;10.014;2023-06-22T11:17:41;101481.22;;;25.42;100.00
10071;BME280;5074;53.720;10.014;2023-06-22T11:20:09;101463.84;;;25.53;100.00
10071;BME280;5074;53.720;10.014;2023-06-22T11:22:52;101463.84;;;25.53;100.00
10071;BME280;5074;53.720;10.014;2023-06-22T11:25:20;101473.31;;;25.70;100.00
10071;BME280;5074;53.720;10.014;2023-06-22T11:27:48;101474.13;;;25.92;100.00
10071;BME280;5074;53.720;10.014;2023-06-22T11:30:17;101456.81;;;26.22;100.00
10071;BME280;5074;53.720;10.014;2023-06-22T11:32:46;101459.78;;;26.60;100.00
10071;BME280;5074;53.720;10.014;2023-06-22T11:35:15;101464.91;;;26.84;100.00
10071;BME280;5074;53.720;10.014;2023-06-22T11:37:43;101468.34;;;27.06;100.00
10071;BME280;5074;53.720;10.014;2023-06-22T11:40:12;101462.94;;;26.65;100.00
10071;BME280;5074;53.720;10.014;2023-06-22T11:42:40;101456.22;;;26.89;100.00
10071;BME280;5074;53.720;10.014;2023-06-22T11:45:09;101447.25;;;26.86;100.00
10071;BME280;5074;53.720;10.014;2023-06-22T11:47:38;101450.47;;;26.92;100.00
10071;BME280;5074;53.720;10.014;2023-06-22T11:50:07;101454.78;;;26.94;100.00
10071;BME280;5074;53.720;10.014;2023-06-22T11:52:35;101450.75;;;26.89;100.00
10071;BME280;5074;53.720;10.014;2023-06-22T11:55:05;101439.75;;;27.08;100.00
10071;BME280;5074;53.720;10.014;2023-06-22T11:57:33;101436.84;;;27.29;100.00
10071;BME280;5074;53.720;10.014;2023-06-22T12:00:03;101450.13;;;27.34;100.00
10071;BME280;5074;53.720;10.014;2023-06-22T12:02:45;101439.75;;;27.85;99.86
10071;BME280;5074;53.720;10.014;2023-06-22T12:05:14;101440.41;;;27.97;95.57
10071;BME280;5074;53.720;10.014;2023-06-22T12:07:42;101446.47;;;27.90;100.00
10071;BME280;5074;53.720;10.014;2023-06-22T12:10:10;101438.47;;;27.79;95.77
10071;BME280;5074;53.720;10.014;2023-06-22T12:12:38;101425.25;;;27.55;100.00
10071;BME280;5074;53.720;10.014;2023-06-22T12:15:06;101421.91;;;27.61;99.31
10071;BME280;5074;53.720;10.014;2023-06-22T12:17:35;101413.34;;;26.97;100.00
10071;BME280;5074;53.720;10.014;2023-06-22T12:20:06;101415.81;;;27.00;100.00
10071;BME280;5074;53.720;10.014;2023-06-22T12:22:34;101410.91;;;27.04;100.00
10071;BME280;5074;53.720;10.014;2023-06-22T12:25:05;101412.66;;;26.85;100.00
10071;BME280;5074;53.720;10.014;2023-06-22T12:27:33;101409.31;;;27.11;100.00
10071;BME280;5074;53.720;10.014;2023-06-22T12:30:02;101399.00;;;27.33;100.00
10071;BME280;5074;53.720;10.014;2023-06-22T12:32:30;101390.28;;;27.47;100.00
10071;BME280;5074;53.720;10.014;2023-06-22T12:34:58;101393.56;;;27.70;98.64
10071;BME280;5074;53.720;10.014;2023-06-22T12:37:28;101385.88;;;27.36;100.00
10071;BME280;5074;53.720;10.014;2023-06-22T12:39:58;101387.31;;;27.21;100.00
10071;BME280;5074;53.720;10.014;2023-06-22T12:42:26;101382.59;;;27.03;100.00
10071;BME280;5074;53.720;10.014;2023-06-22T12:44:54;101382.75;;;27.02;100.00
10071;BME280;5074;53.720;10.014;2023-06-22T12:47:23;101390.41;;;27.55;100.00
10071;BME280;5074;53.720;10.014;2023-06-22T12:49:51;101374.38;;;29.06;93.29
10071;BME280;5074;53.720;10.014;2023-06-22T12:52:19;101374.47;;;30.35;90.85